createdAt,value
2022-08-05T00:00:00.770Z,24.32
2022-08-05T00:01:27.586Z,24.31
2022-08-05T00:02:11.867Z,24.29
2022-08-05T00:03:00.055Z,24.34
2022-08-05T00:04:02.711Z,24.36
2022-08-05T00:05:06.164Z,24.32
2022-08-05T00:06:41.565Z,24.34
2022-08-05T00:08:35.295Z,24.28
2022-08-05T00:08:58.592Z,24.37
2022-08-05T00:09:55.184Z,24.31
2022-08-05T00:10:55.780Z,24.29
2022-08-05T00:12:05.087Z,24.26
2022-08-05T00:13:03.481Z,24.19
2022-08-05T00:14:29.082Z,24.19
2022-08-05T00:16:00.618Z,24.29
2022-08-05T00:16:51.993Z,24.25
2022-08-05T00:17:34.507Z,24.21
2022-08-05T00:18:29.315Z,24.16
2022-08-05T00:19:44.133Z,24.14
2022-08-05T00:20:29.593Z,24.14
2022-08-05T00:21:31.151Z,24.13
2022-08-05T00:22:27.491Z,24.1
2022-08-05T00:24:16.024Z,24.03
2022-08-05T00:25:22.012Z,24.07
2022-08-05T00:26:22.681Z,24.01
2022-08-05T00:27:36.701Z,24.04
2022-08-05T00:28:30.283Z,24.04
2022-08-05T00:29:27.540Z,24.06
2022-08-05T00:30:32.085Z,24.06
2022-08-05T00:32:16.426Z,23.99
2022-08-05T00:32:40.975Z,24.04
2022-08-05T00:35:08.002Z,23.96
2022-08-05T00:35:33.703Z,23.96
2022-08-05T00:38:03.431Z,23.92
2022-08-05T00:38:59.953Z,23.99
2022-08-05T00:40:09.663Z,23.91
2022-08-05T00:40:59.987Z,23.88
2022-08-05T00:42:03.302Z,23.92
2022-08-05T00:42:58.413Z,23.91
2022-08-05T00:43:59.819Z,23.94
2022-08-05T00:45:00.158Z,23.82
2022-08-05T00:46:00.313Z,23.86
2022-08-05T00:47:12.570Z,23.84
2022-08-05T00:48:51.957Z,23.82
2022-08-05T00:49:51.932Z,23.92
2022-08-05T00:50:33.903Z,23.92
2022-08-05T00:51:56.555Z,23.88
2022-08-05T00:52:39.337Z,23.94
2022-08-05T00:54:06.657Z,23.96
2022-08-05T00:54:37.025Z,23.94
2022-08-05T00:55:48.740Z,23.92
2022-08-05T00:56:38.488Z,23.95
2022-08-05T00:57:59.426Z,23.92
2022-08-05T00:58:50.360Z,23.92
2022-08-05T00:59:50.476Z,23.91
2022-08-05T01:00:51.091Z,23.88
2022-08-05T01:01:54.457Z,23.88
2022-08-05T01:02:50.468Z,23.92
2022-08-05T01:03:55.684Z,23.91
2022-08-05T01:04:56.264Z,23.95
2022-08-05T01:05:55.155Z,23.94
2022-08-05T01:06:55.544Z,23.88
2022-08-05T01:08:48.044Z,23.99
2022-08-05T01:09:38.242Z,23.96
2022-08-05T01:10:35.135Z,23.99
2022-08-05T01:11:43.005Z,23.99
2022-08-05T01:12:35.690Z,24.01
2022-08-05T01:14:09.251Z,24.06
2022-08-05T01:14:40.957Z,24.07
2022-08-05T01:15:48.127Z,23.99
2022-08-05T01:16:38.749Z,24.04
2022-08-05T01:17:54.242Z,24.07
2022-08-05T01:18:39.960Z,24.06
2022-08-05T01:20:07.342Z,24.04
2022-08-05T01:20:42.546Z,24.03
2022-08-05T01:21:50.889Z,24.03
2022-08-05T01:22:47.490Z,24.09
2022-08-05T01:23:53.103Z,24.03
2022-08-05T01:24:44.875Z,24.09
2022-08-05T01:25:54.133Z,24.1
2022-08-05T01:26:48.457Z,24.09
2022-08-05T01:28:00.808Z,24.09
2022-08-05T01:28:48.644Z,24.1
2022-08-05T01:29:49.523Z,24.1
2022-08-05T01:31:03.474Z,24.09
2022-08-05T01:31:51.614Z,24.07
2022-08-05T01:32:51.015Z,24.09
2022-08-05T01:33:59.290Z,24.1
2022-08-05T01:34:51.388Z,24.16
2022-08-05T01:36:00.208Z,24.09
2022-08-05T01:36:52.815Z,24.11
2022-08-05T01:37:54.860Z,24.04
2022-08-05T01:38:54.575Z,24.1
2022-08-05T01:39:54.432Z,24.09
2022-08-05T01:40:55.024Z,24.01
2022-08-05T01:41:56.941Z,24.07
2022-08-05T01:42:56.181Z,24.11
2022-08-05T01:43:57.514Z,24.07
2022-08-05T01:45:03.295Z,24.1
2022-08-05T01:46:41.786Z,24.04
2022-08-05T01:47:06.758Z,24.06
2022-08-05T01:48:10.938Z,24.04
2022-08-05T01:49:24.923Z,24.06
2022-08-05T01:50:51.865Z,24
2022-08-05T01:51:52.285Z,24.06
2022-08-05T01:52:50.362Z,24.07
2022-08-05T01:54:04.175Z,24.09
2022-08-05T01:54:53.086Z,24.06
2022-08-05T01:55:47.467Z,24.06
2022-08-05T01:58:47.203Z,23.95
2022-08-05T01:59:06.049Z,24.01
2022-08-05T02:00:12.360Z,24.1
2022-08-05T02:01:09.492Z,23.99
2022-08-05T02:02:17.680Z,24.03
2022-08-05T02:03:34.995Z,23.99
2022-08-05T02:04:16.247Z,23.95
2022-08-05T02:05:23.812Z,23.99
2022-08-05T02:06:45.690Z,23.99
2022-08-05T02:07:30.947Z,23.96
2022-08-05T02:08:55.114Z,23.99
2022-08-05T02:09:22.178Z,23.92
2022-08-05T02:10:28.787Z,23.95
2022-08-05T02:11:34.342Z,24
2022-08-05T02:12:33.005Z,23.96
2022-08-05T02:13:54.087Z,23.94
2022-08-05T02:14:32.354Z,23.95
2022-08-05T02:15:42.074Z,24.01
2022-08-05T02:16:33.581Z,23.91
2022-08-05T02:18:42.615Z,23.94
2022-08-05T02:18:59.810Z,24
2022-08-05T02:20:00.714Z,23.95
2022-08-05T02:21:06.229Z,23.88
2022-08-05T02:22:01.403Z,23.95
2022-08-05T02:23:02.345Z,23.96
2022-08-05T02:24:02.254Z,23.89
2022-08-05T02:25:05.402Z,23.88
2022-08-05T02:26:05.497Z,23.86
2022-08-05T02:27:10.625Z,23.91
2022-08-05T02:28:09.537Z,23.89
2022-08-05T02:29:24.349Z,23.92
2022-08-05T02:30:15.746Z,23.94
2022-08-05T02:31:21.773Z,23.88
2022-08-05T02:32:31.074Z,23.89
2022-08-05T02:33:39.270Z,23.91
2022-08-05T02:34:28.451Z,23.94
2022-08-05T02:35:33.104Z,23.95
2022-08-05T02:36:27.947Z,23.99
2022-08-05T02:37:32.197Z,24.04
2022-08-05T02:38:35.025Z,23.95
2022-08-05T02:39:27.318Z,23.92
2022-08-05T02:40:28.009Z,23.94
2022-08-05T02:41:58.307Z,23.99
2022-08-05T02:42:37.877Z,23.99
2022-08-05T02:44:06.655Z,24
2022-08-05T02:44:35.518Z,24.09
2022-08-05T02:46:01.572Z,24.11
2022-08-05T02:46:58.606Z,24.03
2022-08-05T02:48:14.104Z,24.06
2022-08-05T02:48:43.944Z,24.06
2022-08-05T02:49:43.803Z,24.03
2022-08-05T02:50:44.485Z,24.06
2022-08-05T02:52:09.979Z,24.09
2022-08-05T02:52:41.715Z,24.11
2022-08-05T02:53:47.260Z,24.1
2022-08-05T02:54:52.663Z,24.07
2022-08-05T02:56:02.545Z,24.1
2022-08-05T02:56:51.893Z,24.13
2022-08-05T02:58:20.708Z,24.19
2022-08-05T02:58:53.068Z,24.13
2022-08-05T02:59:57.174Z,24.16
2022-08-05T03:00:51.953Z,24.24
2022-08-05T03:01:52.324Z,24.26
2022-08-05T03:02:50.949Z,24.24
2022-08-05T03:04:15.716Z,24.19
2022-08-05T03:04:53.800Z,24.26
2022-08-05T03:07:04.288Z,24.25
2022-08-05T03:08:17.044Z,24.18
2022-08-05T03:09:17.865Z,24.16
2022-08-05T03:10:09.983Z,24.18
2022-08-05T03:12:02.757Z,24.16
2022-08-05T03:12:23.922Z,24.21
2022-08-05T03:14:02.971Z,24.14
2022-08-05T03:14:26.734Z,24.19
2022-08-05T03:15:26.299Z,24.14
2022-08-05T03:16:28.601Z,24.09
2022-08-05T03:17:29.450Z,24.07
2022-08-05T03:18:42.560Z,24.01
2022-08-05T03:19:42.463Z,24.09
2022-08-05T03:20:30.857Z,24
2022-08-05T03:21:49.767Z,23.96
2022-08-05T03:22:46.840Z,23.95
2022-08-05T03:23:31.170Z,23.91
2022-08-05T03:24:36.353Z,23.92
2022-08-05T03:26:32.677Z,23.88
2022-08-05T03:26:55.436Z,23.91
2022-08-05T03:28:06.374Z,23.92
2022-08-05T03:28:57.648Z,23.86
2022-08-05T03:30:14.050Z,23.88
2022-08-05T03:31:00.905Z,23.85
2022-08-05T03:32:09.141Z,23.84
2022-08-05T03:33:01.977Z,23.84
2022-08-05T03:34:02.541Z,23.79
2022-08-05T03:35:05.610Z,23.74
2022-08-05T03:36:06.859Z,23.74
2022-08-05T03:37:04.838Z,23.79
2022-08-05T03:38:05.420Z,23.84
2022-08-05T03:39:08.489Z,23.77
2022-08-05T03:40:12.275Z,23.79
2022-08-05T03:41:14.051Z,23.71
2022-08-05T03:42:08.001Z,23.71
2022-08-05T03:44:20.426Z,23.67
2022-08-05T03:44:40.882Z,23.67
2022-08-05T03:46:33.070Z,23.64
2022-08-05T03:47:23.507Z,23.73
2022-08-05T03:48:57.989Z,23.63
2022-08-05T03:49:51.185Z,23.73
2022-08-05T03:50:26.001Z,23.66
2022-08-05T03:56:31.812Z,23.66
2022-08-05T03:57:48.265Z,23.71
2022-08-05T03:58:29.626Z,23.69
2022-08-05T03:59:47.464Z,23.64
2022-08-05T04:00:27.039Z,23.62
2022-08-05T04:01:26.728Z,23.64
2022-08-05T04:02:59.186Z,23.64
2022-08-05T04:03:38.452Z,23.63
2022-08-05T04:04:33.213Z,23.69
2022-08-05T04:05:42.060Z,23.67
2022-08-05T04:06:36.060Z,23.66
2022-08-05T04:07:59.171Z,23.67
2022-08-05T04:08:48.519Z,23.59
2022-08-05T04:09:54.366Z,23.69
2022-08-05T04:10:44.796Z,23.59
2022-08-05T04:11:57.417Z,23.63
2022-08-05T04:12:44.906Z,23.63
2022-08-05T04:13:56.549Z,23.62
2022-08-05T04:14:46.562Z,23.56
2022-08-05T04:16:14.550Z,23.63
2022-08-05T04:16:48.137Z,23.51
2022-08-05T04:18:02.881Z,23.59
2022-08-05T04:18:57.843Z,23.59
2022-08-05T04:19:58.764Z,23.52
2022-08-05T04:20:50.745Z,23.58
2022-08-05T04:22:21.306Z,23.59
2022-08-05T04:22:54.938Z,23.64
2022-08-05T04:24:22.407Z,23.66
2022-08-05T04:25:01.160Z,23.77
2022-08-05T04:26:05.828Z,23.89
2022-08-05T04:26:54.822Z,23.95
2022-08-05T04:28:13.117Z,23.91
2022-08-05T04:28:59.840Z,23.92
2022-08-05T04:29:56.822Z,23.91
2022-08-05T04:30:58.364Z,24.09
2022-08-05T04:31:57.889Z,24.19
2022-08-05T04:32:58.532Z,24.18
2022-08-05T04:34:35.294Z,24.22
2022-08-05T04:35:05.139Z,24.19
2022-08-05T04:36:50.785Z,24.09
2022-08-05T04:37:18.439Z,24.09
2022-08-05T04:38:52.097Z,23.91
2022-08-05T04:39:53.397Z,23.95
2022-08-05T04:40:51.513Z,23.89
2022-08-05T04:41:48.663Z,23.88
2022-08-05T04:42:47.387Z,23.79
2022-08-05T04:43:58.506Z,23.74
2022-08-05T04:44:47.038Z,23.76
2022-08-05T04:45:56.125Z,23.77
2022-08-05T04:46:53.314Z,23.73
2022-08-05T04:47:52.898Z,23.67
2022-08-05T04:48:52.165Z,23.67
2022-08-05T04:50:12.445Z,23.71
2022-08-05T04:51:17.285Z,23.74
2022-08-05T04:52:18.908Z,23.73
2022-08-05T04:53:17.428Z,23.77
2022-08-05T04:54:18.989Z,23.73
2022-08-05T04:55:34.029Z,23.76
2022-08-05T04:56:50.199Z,23.71
2022-08-05T04:57:57.380Z,23.85
2022-08-05T04:58:52.957Z,23.7
2022-08-05T05:00:00.710Z,23.79
2022-08-05T05:01:01.206Z,23.82
2022-08-05T05:02:41.699Z,23.91
2022-08-05T05:03:09.518Z,23.89
2022-08-05T05:04:04.875Z,24.01
2022-08-05T05:05:29.033Z,23.99
2022-08-05T05:07:03.657Z,24.03
2022-08-05T05:08:02.951Z,24.04
2022-08-05T05:09:05.956Z,24.07
2022-08-05T05:10:03.469Z,24.09
2022-08-05T05:11:02.172Z,24.03
2022-08-05T05:12:08.874Z,24.04
2022-08-05T05:13:04.680Z,24.1
2022-08-05T05:14:02.662Z,24.16
2022-08-05T05:15:04.443Z,24.13
2022-08-05T05:16:12.212Z,24.24
2022-08-05T05:17:07.808Z,24.21
2022-08-05T05:18:05.213Z,24.19
2022-08-05T05:19:44.456Z,24.32
2022-08-05T05:20:07.960Z,24.29
2022-08-05T05:21:06.567Z,24.29
2022-08-05T05:22:28.790Z,24.32
2022-08-05T05:23:20.356Z,24.31
2022-08-05T05:24:18.178Z,24.37
2022-08-05T05:25:41.328Z,24.41
2022-08-05T05:26:33.156Z,24.43
2022-08-05T05:27:53.838Z,24.47
2022-08-05T05:28:29.672Z,24.5
2022-08-05T05:30:05.241Z,24.56
2022-08-05T05:30:42.599Z,24.5
2022-08-05T05:31:46.814Z,24.55
2022-08-05T05:32:49.233Z,24.55
2022-08-05T05:34:05.264Z,24.56
2022-08-05T05:34:43.796Z,24.58
2022-08-05T05:35:48.890Z,24.55
2022-08-05T05:36:47.636Z,24.55
2022-08-05T05:38:05.924Z,24.48
2022-08-05T05:38:48.289Z,24.5
2022-08-05T05:39:51.089Z,24.53
2022-08-05T05:40:57.548Z,24.5
2022-08-05T05:42:00.762Z,24.56
2022-08-05T05:42:53.258Z,24.53
2022-08-05T05:44:37.641Z,24.61
2022-08-05T05:45:09.552Z,24.58
2022-08-05T05:46:16.256Z,24.61
2022-08-05T05:47:22.383Z,24.63
2022-08-05T05:48:28.317Z,24.47
2022-08-05T05:49:28.453Z,24.46
2022-08-05T05:50:26.378Z,24.59
2022-08-05T05:51:24.451Z,24.53
2022-08-05T05:52:41.025Z,24.61
2022-08-05T05:53:59.694Z,24.63
2022-08-05T05:54:55.937Z,24.56
2022-08-05T05:56:06.052Z,24.65
2022-08-05T05:56:40.923Z,24.69
2022-08-05T05:57:53.285Z,24.69
2022-08-05T05:58:46.234Z,24.75
2022-08-05T05:59:46.695Z,24.85
2022-08-05T06:00:46.880Z,24.82
2022-08-05T06:01:58.537Z,24.88
2022-08-05T06:02:48.358Z,24.92
2022-08-05T06:04:11.566Z,24.99
2022-08-05T06:04:58.914Z,25.06
2022-08-05T06:05:59.598Z,25.11
2022-08-05T06:06:54.491Z,25.24
2022-08-05T06:08:09.780Z,25.21
2022-08-05T06:08:55.006Z,25.25
2022-08-05T06:10:10.885Z,25.31
2022-08-05T06:10:58.560Z,25.36
2022-08-05T06:12:09.896Z,25.46
2022-08-05T06:13:04.012Z,25.56
2022-08-05T06:14:06.500Z,25.58
2022-08-05T06:15:08.983Z,25.68
2022-08-05T06:16:44.301Z,25.68
2022-08-05T06:17:58.525Z,25.8
2022-08-05T06:18:46.641Z,25.81
2022-08-05T06:19:59.465Z,25.93
2022-08-05T06:20:48.358Z,25.98
2022-08-05T06:21:50.365Z,25.99
2022-08-05T06:22:48.383Z,26.04
2022-08-05T06:23:50.732Z,26.1
2022-08-05T06:24:54.071Z,26.16
2022-08-05T06:26:34.989Z,26.24
2022-08-05T06:28:09.859Z,26.27
2022-08-05T06:28:36.627Z,26.3
2022-08-05T06:30:18.062Z,26.46
2022-08-05T06:30:41.838Z,26.44
2022-08-05T06:31:42.215Z,26.52
2022-08-05T06:32:41.316Z,26.59
2022-08-05T06:34:16.279Z,26.63
2022-08-05T06:36:16.440Z,26.81
2022-08-05T06:37:14.944Z,26.85
2022-08-05T06:38:37.178Z,26.97
2022-08-05T06:39:22.313Z,26.96
2022-08-05T06:40:21.623Z,27.07
2022-08-05T06:41:22.794Z,27.15
2022-08-05T06:42:19.093Z,27.22
2022-08-05T06:44:06.119Z,27.33
2022-08-05T06:44:27.639Z,27.35
2022-08-05T06:46:07.402Z,27.4
2022-08-05T06:47:02.742Z,27.47
2022-08-05T06:49:08.403Z,27.58
2022-08-05T06:50:17.889Z,27.58
2022-08-05T06:51:11.337Z,27.66
2022-08-05T06:52:07.163Z,27.63
2022-08-05T06:53:28.950Z,27.64
2022-08-05T06:54:18.302Z,27.72
2022-08-05T06:55:11.009Z,27.61
2022-08-05T06:56:35.304Z,27.63
2022-08-05T06:58:36.954Z,27.71
2022-08-05T06:59:42.301Z,27.71
2022-08-05T07:00:35.355Z,27.64
2022-08-05T07:01:42.794Z,27.61
2022-08-05T07:02:35.533Z,27.64
2022-08-05T07:03:39.023Z,27.66
2022-08-05T07:04:36.861Z,27.76
2022-08-05T07:05:43.957Z,27.86
2022-08-05T07:06:35.712Z,27.83
2022-08-05T07:07:49.085Z,27.85
2022-08-05T07:08:35.746Z,27.82
2022-08-05T07:09:58.237Z,27.82
2022-08-05T07:10:53.856Z,27.88
2022-08-05T07:11:51.937Z,28
2022-08-05T07:12:49.577Z,28.06
2022-08-05T07:14:06.962Z,28.16
2022-08-05T07:14:44.774Z,28.1
2022-08-05T07:16:12.499Z,28.23
2022-08-05T07:18:36.817Z,28.53
2022-08-05T07:20:36.333Z,28.72
2022-08-05T07:20:56.315Z,28.83
2022-08-05T07:22:08.618Z,28.87
2022-08-05T07:23:29.463Z,28.97
2022-08-05T07:24:17.345Z,29.16
2022-08-05T07:25:57.019Z,29.2
2022-08-05T07:26:25.795Z,29.27
2022-08-05T07:27:22.215Z,29.32
2022-08-05T07:28:23.492Z,29.34
2022-08-05T07:30:31.807Z,29.47
2022-08-05T07:31:00.477Z,29.5
2022-08-05T07:32:04.457Z,29.59
2022-08-05T07:32:59.881Z,29.64
2022-08-05T07:34:08.635Z,29.62
2022-08-05T07:36:20.445Z,29.68
2022-08-05T07:36:39.813Z,29.65
2022-08-05T07:37:47.808Z,29.65
2022-08-05T07:38:55.162Z,29.64
2022-08-05T07:40:45.003Z,29.62
2022-08-05T07:42:36.325Z,29.55
2022-08-05T07:43:27.866Z,29.55
2022-08-05T07:44:27.041Z,29.44
2022-08-05T07:45:58.449Z,29.46
2022-08-05T07:46:33.945Z,29.49
2022-08-05T07:47:42.841Z,29.28
2022-08-05T07:49:08.520Z,29.25
2022-08-05T07:49:54.183Z,29.2
2022-08-05T07:50:39.311Z,29.1
2022-08-05T07:51:55.232Z,29.02
2022-08-05T07:52:35.512Z,29.05
2022-08-05T07:53:56.066Z,29.02
2022-08-05T07:54:49.540Z,28.94
2022-08-05T07:58:07.476Z,29.02
2022-08-05T07:59:15.492Z,28.97
2022-08-05T08:00:17.505Z,28.97
2022-08-05T08:01:22.622Z,28.92
2022-08-05T08:02:30.683Z,28.96
2022-08-05T08:03:45.054Z,29.03
2022-08-05T08:04:45.637Z,29.02
2022-08-05T08:05:41.846Z,28.97
2022-08-05T08:06:34.245Z,28.97
2022-08-05T08:08:00.666Z,29.06
2022-08-05T08:08:57.511Z,29.02
2022-08-05T08:09:59.037Z,28.93
2022-08-05T08:10:58.670Z,28.78
2022-08-05T08:12:39.606Z,28.72
2022-08-05T08:13:12.038Z,28.77
2022-08-05T08:14:19.109Z,28.78
2022-08-05T08:16:50.550Z,28.8
2022-08-05T08:17:08.957Z,28.77
2022-08-05T08:18:14.826Z,28.87
2022-08-05T08:20:44.767Z,29
2022-08-05T08:22:00.451Z,29.02
2022-08-05T08:23:03.818Z,29.1
2022-08-05T08:24:20.409Z,29.15
2022-08-05T08:25:59.620Z,29.15
2022-08-05T08:26:30.278Z,29.15
2022-08-05T08:27:40.354Z,29.09
2022-08-05T08:29:02.557Z,29.03
2022-08-05T08:30:53.283Z,29.02
2022-08-05T08:31:41.858Z,28.97
2022-08-05T08:32:46.500Z,28.86
2022-08-05T08:33:45.692Z,28.96
2022-08-05T08:34:46.860Z,28.8
2022-08-05T08:36:18.724Z,28.84
2022-08-05T08:37:10.801Z,28.82
2022-08-05T08:38:16.787Z,28.74
2022-08-05T08:39:21.576Z,28.87
2022-08-05T08:40:11.191Z,28.93
2022-08-05T08:41:14.636Z,28.75
2022-08-05T08:42:53.537Z,28.77
2022-08-05T08:45:30.458Z,28.82
2022-08-05T08:46:23.623Z,28.9
2022-08-05T08:48:23.981Z,29.15
2022-08-05T08:52:05.745Z,28.96
2022-08-05T08:53:01.638Z,28.9
2022-08-05T08:54:00.899Z,28.83
2022-08-05T08:55:13.729Z,28.78
2022-08-05T08:56:12.549Z,28.94
2022-08-05T08:57:18.269Z,29.1
2022-08-05T08:58:14.101Z,29.12
2022-08-05T08:59:33.453Z,29.27
2022-08-05T09:00:19.587Z,29.15
2022-08-05T09:01:21.832Z,29.15
2022-08-05T09:02:17.179Z,29.09
2022-08-05T09:03:19.056Z,29.13
2022-08-05T09:04:17.272Z,29.15
2022-08-05T09:06:11.033Z,29.25
2022-08-05T09:06:36.687Z,29.37
2022-08-05T09:07:58.279Z,29.68
2022-08-05T09:08:40.889Z,29.95
2022-08-05T09:09:42.600Z,29.99
2022-08-05T09:10:40.449Z,30.32
2022-08-05T09:12:19.905Z,30.61
2022-08-05T09:12:42.457Z,30.65
2022-08-05T09:15:06.894Z,31.17
2022-08-05T09:15:31.570Z,31.13
2022-08-05T09:16:32.672Z,31.51
2022-08-05T09:17:50.369Z,31.73
2022-08-05T09:18:32.605Z,31.85
2022-08-05T09:20:02.116Z,32.05
2022-08-05T09:20:44.131Z,32.15
2022-08-05T09:22:52.081Z,32.41
2022-08-05T09:23:43.519Z,32.61
2022-08-05T09:24:32.213Z,32.68
2022-08-05T09:26:22.194Z,32.9
2022-08-05T09:28:06.421Z,33.36
2022-08-05T09:28:33.705Z,33.38
2022-08-05T09:29:48.227Z,33.63
2022-08-05T09:30:31.004Z,33.66
2022-08-05T09:32:54.400Z,34.1
2022-08-05T09:33:21.713Z,34.24
2022-08-05T09:34:15.586Z,34.44
2022-08-05T09:35:27.699Z,34.69
2022-08-05T09:36:33.508Z,34.82
2022-08-05T09:38:36.311Z,34.86
2022-08-05T09:39:56.597Z,35.05
2022-08-05T09:40:39.097Z,35.15
2022-08-05T09:41:56.618Z,35.3
2022-08-05T09:42:41.304Z,35.37
2022-08-05T09:43:49.775Z,35.39
2022-08-05T09:44:40.425Z,35.47
2022-08-05T09:46:15.766Z,35.44
2022-08-05T09:46:58.092Z,35.52
2022-08-05T09:48:01.910Z,35.45
2022-08-05T09:50:00.855Z,35.54
2022-08-05T09:50:45.565Z,35.59
2022-08-05T09:51:28.806Z,35.53
2022-08-05T09:52:31.324Z,35.68
2022-08-05T09:54:01.056Z,35.75
2022-08-05T09:54:35.717Z,35.79
2022-08-05T09:56:13.694Z,35.94
2022-08-05T09:56:30.669Z,35.9
2022-08-05T09:57:35.641Z,35.9
2022-08-05T09:58:34.373Z,35.9
2022-08-05T09:59:37.624Z,35.96
2022-08-05T10:00:33.759Z,36.05
2022-08-05T10:01:40.185Z,36.03
2022-08-05T10:02:33.886Z,36.11
2022-08-05T10:04:04.368Z,36.05
2022-08-05T10:04:40.242Z,36.13
2022-08-05T10:05:40.177Z,36.14
2022-08-05T10:06:37.933Z,36.16
2022-08-05T10:08:43.033Z,36.22
2022-08-05T10:09:09.608Z,36.25
2022-08-05T10:10:56.821Z,36.39
2022-08-05T10:11:56.594Z,36.35
2022-08-05T10:12:55.891Z,36.31
2022-08-05T10:14:00.826Z,36.24
2022-08-05T10:15:00.229Z,36.24
2022-08-05T10:15:59.902Z,36.18
2022-08-05T10:17:00.315Z,36.13
2022-08-05T10:18:02.764Z,36.2
2022-08-05T10:19:01.067Z,36.16
2022-08-05T10:20:18.769Z,36.06
2022-08-05T10:21:23.492Z,35.97
2022-08-05T10:22:48.609Z,35.9
2022-08-05T10:24:01.847Z,35.97
2022-08-05T10:24:32.982Z,35.94
2022-08-05T10:25:25.493Z,35.97
2022-08-05T10:26:33.839Z,36.03
2022-08-05T10:28:30.446Z,35.93
2022-08-05T10:28:49.017Z,35.86
2022-08-05T10:33:15.541Z,35.5
2022-08-05T10:34:08.685Z,35.42
2022-08-05T10:35:09.935Z,35.3
2022-08-05T10:36:08.684Z,35.41
2022-08-05T10:37:09.468Z,35.32
2022-08-05T10:38:13.915Z,35.38
2022-08-05T10:40:04.388Z,35.27
2022-08-05T10:40:45.226Z,35.45
2022-08-05T10:41:52.761Z,35.47
2022-08-05T10:42:44.344Z,35.38
2022-08-05T10:43:42.206Z,35.41
2022-08-05T10:44:42.501Z,35.35
2022-08-05T10:45:47.561Z,35.49
2022-08-05T10:46:44.084Z,35.45
2022-08-05T10:48:34.434Z,35.42
2022-08-05T10:49:32.910Z,35.34
2022-08-05T10:50:44.420Z,35.15
2022-08-05T10:52:10.854Z,35.15
2022-08-05T10:52:58.989Z,35.22
2022-08-05T10:53:51.082Z,35.19
2022-08-05T10:54:57.337Z,35.18
2022-08-05T10:56:31.746Z,35.26
2022-08-05T10:57:33.801Z,35.16
2022-08-05T10:58:53.333Z,35.27
2022-08-05T11:00:23.705Z,35.16
2022-08-05T11:01:53.992Z,34.98
2022-08-05T11:02:51.203Z,34.98
2022-08-05T11:03:42.678Z,34.96
2022-08-05T11:04:42.764Z,34.94
2022-08-05T11:05:43.982Z,34.83
2022-08-05T11:06:46.061Z,34.93
2022-08-05T11:08:45.103Z,35.12
2022-08-05T11:10:09.812Z,34.97
2022-08-05T11:10:33.571Z,34.89
2022-08-05T11:11:52.504Z,35.01
2022-08-05T11:12:33.569Z,34.83
2022-08-05T11:13:38.686Z,34.93
2022-08-05T11:15:21.423Z,34.78
2022-08-05T11:16:21.999Z,34.83
2022-08-05T11:18:06.357Z,34.4
2022-08-05T11:18:27.239Z,34.38
2022-08-05T11:20:32.082Z,33.92
2022-08-05T11:21:49.734Z,33.63
2022-08-05T11:22:29.864Z,33.48
2022-08-05T11:24:14.851Z,33.54
2022-08-05T11:26:11.302Z,33.57
2022-08-05T11:26:40.723Z,33.58
2022-08-05T11:28:01.393Z,33.67
2022-08-05T11:28:42.036Z,33.7
2022-08-05T11:29:42.685Z,33.7
2022-08-05T11:30:53.698Z,33.75
2022-08-05T11:32:07.274Z,34
2022-08-05T11:33:21.881Z,34.06
2022-08-05T11:34:17.188Z,34.29
2022-08-05T11:35:16.008Z,34.21
2022-08-05T11:36:15.145Z,34.28
2022-08-05T11:38:51.161Z,34.41
2022-08-05T11:39:09.832Z,34.29
2022-08-05T11:40:11.069Z,34.37
2022-08-05T11:42:04.878Z,34.37
2022-08-05T11:42:40.964Z,34.11
2022-08-05T11:44:52.877Z,33.75
2022-08-05T11:46:30.768Z,33.65
2022-08-05T11:47:55.773Z,33.79
2022-08-05T11:48:30.367Z,33.77
2022-08-05T11:49:34.360Z,33.75
2022-08-05T11:50:31.208Z,33.58
2022-08-05T11:51:53.899Z,33.45
2022-08-05T11:52:35.691Z,33.26
2022-08-05T11:53:42.205Z,33.01
2022-08-05T11:54:41.831Z,32.85
2022-08-05T11:55:44.140Z,32.83
2022-08-05T11:56:52.089Z,32.49
2022-08-05T11:58:18.098Z,32.38
2022-08-05T11:58:53.374Z,32.19
2022-08-05T11:59:55.623Z,32.05
2022-08-05T12:00:54.396Z,31.97
2022-08-05T12:01:52.980Z,31.78
2022-08-05T12:02:50.452Z,31.67
2022-08-05T12:04:00.880Z,31.47
2022-08-05T12:05:18.661Z,31.48
2022-08-05T12:06:20.820Z,31.45
2022-08-05T12:08:11.168Z,31.18
2022-08-05T12:08:33.419Z,31.25
2022-08-05T12:10:06.330Z,30.96
2022-08-05T12:10:53.018Z,30.86
2022-08-05T12:11:47.863Z,30.85
2022-08-05T12:12:35.310Z,30.73
2022-08-05T12:13:59.492Z,30.73
2022-08-05T12:14:34.668Z,30.67
2022-08-05T12:15:44.393Z,30.49
2022-08-05T12:16:46.257Z,30.48
2022-08-05T12:18:17.248Z,30.36
2022-08-05T12:18:55.920Z,30.27
2022-08-05T12:20:40.618Z,30.16
2022-08-05T12:21:03.862Z,30.14
2022-08-05T12:22:02.095Z,30.13
2022-08-05T12:23:01.389Z,30.03
2022-08-05T12:24:06.801Z,29.89
2022-08-05T12:25:02.248Z,29.89
2022-08-05T12:26:03.282Z,29.8
2022-08-05T12:27:21.719Z,29.69
2022-08-05T12:28:15.802Z,29.62
2022-08-05T12:29:11.850Z,29.59
2022-08-05T12:30:15.741Z,29.59
2022-08-05T12:31:33.805Z,29.5
2022-08-05T12:32:17.373Z,29.4
2022-08-05T12:33:35.978Z,29.44
2022-08-05T12:34:23.657Z,29.35
2022-08-05T12:35:21.780Z,29.31
2022-08-05T12:36:16.912Z,29.28
2022-08-05T12:37:21.979Z,29.31
2022-08-05T12:38:22.754Z,29.42
2022-08-05T12:39:16.040Z,29.3
2022-08-05T12:40:31.959Z,29.35
2022-08-05T12:41:19.171Z,29.24
2022-08-05T12:42:21.171Z,29.25
2022-08-05T12:43:32.702Z,29.31
2022-08-05T12:44:34.329Z,29.13
2022-08-05T12:45:22.606Z,29.15
2022-08-05T12:46:31.310Z,29.18
2022-08-05T12:47:26.023Z,29.18
2022-08-05T12:48:40.383Z,29.18
2022-08-05T12:50:06.307Z,29.22
2022-08-05T12:50:26.678Z,29.13
2022-08-05T12:52:29.742Z,29.12
2022-08-05T12:52:53.916Z,29.15
2022-08-05T12:54:01.797Z,29.2
2022-08-05T12:54:56.221Z,29.13
2022-08-05T12:55:56.602Z,29.06
2022-08-05T12:56:56.558Z,28.96
2022-08-05T12:59:14.479Z,29.18
2022-08-05T13:02:14.004Z,29.15
2022-08-05T13:03:23.514Z,29.15
2022-08-05T13:04:26.233Z,29.15
2022-08-05T13:05:22.482Z,29.15
2022-08-05T13:06:22.213Z,29.13
2022-08-05T13:07:57.985Z,29.07
2022-08-05T13:08:27.440Z,29.1
2022-08-05T13:09:33.874Z,28.93
2022-08-05T13:10:29.084Z,28.96
2022-08-05T13:12:16.182Z,28.82
2022-08-05T13:13:04.301Z,28.77
2022-08-05T13:15:24.220Z,28.82
2022-08-05T13:16:06.635Z,28.82
2022-08-05T13:17:06.496Z,28.78
2022-08-05T13:18:08.171Z,28.78
2022-08-05T13:19:08.560Z,28.72
2022-08-05T13:20:09.187Z,28.74
2022-08-05T13:21:10.043Z,28.6
2022-08-05T13:22:12.688Z,28.7
2022-08-05T13:23:14.007Z,28.78
2022-08-05T13:24:36.637Z,28.78
2022-08-05T13:26:07.374Z,28.74
2022-08-05T13:27:17.000Z,28.78
2022-08-05T13:28:10.941Z,28.82
2022-08-05T13:29:37.436Z,28.77
2022-08-05T13:30:48.646Z,28.9
2022-08-05T13:32:10.722Z,28.74
2022-08-05T13:32:56.954Z,28.8
2022-08-05T13:34:29.992Z,28.82
2022-08-05T13:34:49.664Z,28.8
2022-08-05T13:36:02.123Z,28.9
2022-08-05T13:36:55.045Z,28.78
2022-08-05T13:38:05.975Z,28.9
2022-08-05T13:38:57.817Z,28.75
2022-08-05T13:40:57.992Z,28.72
2022-08-05T13:41:44.255Z,28.8
2022-08-05T13:42:47.182Z,28.77
2022-08-05T13:43:55.710Z,28.65
2022-08-05T13:44:50.869Z,28.64
2022-08-05T13:45:51.331Z,28.67
2022-08-05T13:48:56.832Z,28.8
2022-08-05T13:49:52.312Z,28.92
2022-08-05T13:50:53.505Z,28.97
2022-08-05T13:51:54.604Z,29.05
2022-08-05T13:52:56.050Z,29.13
2022-08-05T13:53:58.330Z,29.12
2022-08-05T13:55:01.695Z,29.09
2022-08-05T13:56:19.378Z,28.96
2022-08-05T13:56:57.445Z,28.97
2022-08-05T13:57:57.881Z,28.78
2022-08-05T13:59:19.877Z,28.77
2022-08-05T14:00:04.792Z,28.74
2022-08-05T14:01:07.642Z,28.82
2022-08-05T14:02:07.734Z,28.8
2022-08-05T14:03:07.699Z,28.8
2022-08-05T14:04:07.670Z,28.8
2022-08-05T14:05:15.224Z,28.83
2022-08-05T14:06:32.711Z,28.82
2022-08-05T14:08:27.624Z,29
2022-08-05T14:08:53.191Z,28.97
2022-08-05T14:09:52.415Z,29.02
2022-08-05T14:11:03.375Z,29.18
2022-08-05T14:13:00.571Z,29.49
2022-08-05T14:14:04.766Z,29.57
2022-08-05T14:16:11.221Z,29.69
2022-08-05T14:16:31.390Z,29.57
2022-08-05T14:17:34.569Z,29.32
2022-08-05T14:18:32.286Z,29.32
2022-08-05T14:19:58.626Z,29.13
2022-08-05T14:20:33.800Z,29.15
2022-08-05T14:22:17.170Z,29.09
2022-08-05T14:22:50.572Z,29.25
2022-08-05T14:23:43.674Z,29.35
2022-08-05T14:24:47.582Z,29.49
2022-08-05T14:25:55.389Z,29.62